Time;durP1;ratioP1;P1;durP2;ratioP2;P2;SDS_P1;SDS_P2;PMS_P1;PMS_P2;Temp;Humidity;BMP_temperature;BMP_pressure;BME280_temperature;BME280_humidity;BME280_pressure;Samples;Min_cycle;Max_cycle;Signal;HPM_P1;HPM_P2
2024/01/16 00:02:09;;;;;;;7.40;3.60;;;;;;;;;;4971028;28;20047;-61
2024/01/16 00:04:37;;;;;;;6.70;3.60;;;;;;;;;;4968536;28;20054;-62
2024/01/16 00:07:04;;;;;;;7.13;3.72;;;;;;;;;;4971191;28;20054;-60
2024/01/16 00:09:33;;;;;;;7.05;3.75;;;;;;;;;;4969819;28;20047;-60
2024/01/16 00:11:59;;;;;;;9.75;3.80;;;;;;;;;;4971029;28;20038;-60
2024/01/16 00:14:25;;;;;;;7.38;3.58;;;;;;;;;;4969522;28;20046;-61
2024/01/16 00:16:51;;;;;;;7.03;3.28;;;;;;;;;;4971439;28;20058;-60
2024/01/16 00:19:17;;;;;;;8.00;3.47;;;;;;;;;;4967896;28;20035;-60
2024/01/16 00:21:47;;;;;;;9.82;3.28;;;;;;;;;;4971126;28;20038;-60
2024/01/16 00:24:14;;;;;;;6.90;3.13;;;;;;;;;;4970599;28;20049;-60
2024/01/16 00:26:40;;;;;;;6.47;3.42;;;;;;;;;;4965776;28;20043;-60
2024/01/16 00:29:06;;;;;;;9.00;3.90;;;;;;;;;;4968747;28;20034;-60
2024/01/16 00:31:32;;;;;;;7.60;3.42;;;;;;;;;;4971721;28;20049;-60
2024/01/16 00:33:59;;;;;;;7.70;4.00;;;;;;;;;;4968964;28;20062;-63
2024/01/16 00:36:26;;;;;;;6.45;3.30;;;;;;;;;;4967980;28;20784;-62
2024/01/16 00:38:52;;;;;;;7.88;3.53;;;;;;;;;;4968401;28;20164;-62
2024/01/16 00:41:18;;;;;;;7.10;3.45;;;;;;;;;;4971433;28;20406;-62
2024/01/16 00:43:44;;;;;;;7.30;3.45;;;;;;;;;;4967594;28;20475;-62
2024/01/16 00:46:11;;;;;;;6.53;3.50;;;;;;;;;;4970317;28;20051;-62
2024/01/16 00:48:37;;;;;;;6.38;3.40;;;;;;;;;;4960184;28;20042;-61
2024/01/16 00:51:03;;;;;;;6.65;4.15;;;;;;;;;;4971093;28;20047;-61
2024/01/16 00:53:29;;;;;;;7.45;3.75;;;;;;;;;;4970838;28;20141;-61
2024/01/16 00:55:55;;;;;;;6.70;3.30;;;;;;;;;;4970430;28;20046;-61
2024/01/16 00:58:22;;;;;;;5.50;3.03;;;;;;;;;;4968223;28;20061;-61
2024/01/16 01:00:48;;;;;;;6.72;3.63;;;;;;;;;;4970108;28;20042;-63
2024/01/16 01:03:14;;;;;;;7.20;3.45;;;;;;;;;;4968791;28;20027;-62
2024/01/16 01:05:40;;;;;;;5.88;3.22;;;;;;;;;;4969966;28;20148;-61
2024/01/16 01:08:07;;;;;;;5.05;2.90;;;;;;;;;;4968038;28;20039;-61
2024/01/16 01:10:33;;;;;;;6.97;3.60;;;;;;;;;;4969130;28;20043;-61
2024/01/16 01:12:59;;;;;;;5.88;3.20;;;;;;;;;;4970215;28;20047;-61
2024/01/16 01:15:25;;;;;;;6.70;3.22;;;;;;;;;;4969779;28;20065;-60
2024/01/16 01:17:52;;;;;;;4.88;3.20;;;;;;;;;;4969843;28;20051;-60
2024/01/16 01:20:19;;;;;;;7.20;3.40;;;;;;;;;;4969137;28;20061;-60
2024/01/16 01:22:46;;;;;;;7.63;3.17;;;;;;;;;;4969600;28;20427;-61
2024/01/16 01:25:12;;;;;;;8.02;3.65;;;;;;;;;;4969324;28;20065;-61
2024/01/16 01:27:39;;;;;;;10.65;3.45;;;;;;;;;;4965069;28;20046;-61
2024/01/16 01:30:11;;;;;;;6.88;3.83;;;;;;;;;;4967444;28;20042;-61
2024/01/16 01:32:38;;;;;;;6.22;3.15;;;;;;;;;;4963833;28;20043;-61
2024/01/16 01:35:05;;;;;;;7.28;3.63;;;;;;;;;;4968629;28;20053;-61
2024/01/16 01:37:31;;;;;;;6.30;3.20;;;;;;;;;;4966901;28;20490;-60
2024/01/16 01:39:57;;;;;;;8.85;3.45;;;;;;;;;;4968045;28;20525;-60
2024/01/16 01:45:17;;;;;;;9.13;3.70;;;;;;;;;;4923425;29;20047;-60
2024/01/16 01:47:43;;;;;;;8.05;4.07;;;;;;;;;;4930327;29;20044;-60
2024/01/16 01:50:10;;;;;;;8.80;3.05;;;;;;;;;;4927459;29;20052;-59
2024/01/16 01:52:38;;;;;;;6.95;3.10;;;;;;;;;;4926227;29;20044;-59
2024/01/16 01:55:07;;;;;;;4.85;2.95;;;;;;;;;;4931093;28;20067;-59
2024/01/16 01:57:34;;;;;;;5.38;3.42;;;;;;;;;;4927091;29;20039;-59
2024/01/16 02:00:00;;;;;;;5.68;3.33;;;;;;;;;;4930349;29;20058;-60
2024/01/16 02:02:28;;;;;;;8.52;3.30;;;;;;;;;;4931909;29;20028;-61
2024/01/16 02:04:55;;;;;;;6.32;3.03;;;;;;;;;;4930978;29;20414;-61
2024/01/16 02:07:21;;;;;;;8.68;3.13;;;;;;;;;;4932332;29;20036;-60
2024/01/16 02:09:48;;;;;;;8.40;3.78;;;;;;;;;;4926553;29;20067;-60
2024/01/16 02:12:14;;;;;;;5.07;2.97;;;;;;;;;;4930103;29;20036;-61
2024/01/16 02:14:40;;;;;;;7.70;3.60;;;;;;;;;;4931389;29;20052;-61
2024/01/16 02:17:06;;;;;;;6.63;3.30;;;;;;;;;;4930585;29;20523;-60
2024/01/16 02:19:32;;;;;;;10.57;3.70;;;;;;;;;;4929462;29;20050;-61
2024/01/16 02:22:02;;;;;;;5.80;3.00;;;;;;;;;;4932064;29;20048;-60
2024/01/16 02:24:29;;;;;;;6.10;3.28;;;;;;;;;;4929430;29;20062;-59
2024/01/16 02:26:55;;;;;;;6.45;3.22;;;;;;;;;;4932076;29;20051;-60
2024/01/16 02:29:22;;;;;;;6.72;3.40;;;;;;;;;;4929432;29;20048;-59
2024/01/16 02:31:48;;;;;;;6.93;3.05;;;;;;;;;;4930070;29;20048;-61
2024/01/16 02:34:14;;;;;;;6.25;2.97;;;;;;;;;;4931942;29;20507;-60
2024/01/16 02:36:40;;;;;;;8.18;3.28;;;;;;;;;;4929660;29;20527;-60
2024/01/16 02:39:06;;;;;;;6.88;3.00;;;;;;;;;;4931624;29;20039;-60
2024/01/16 02:41:32;;;;;;;5.65;3.10;;;;;;;;;;4936832;29;20042;-60
2024/01/16 02:43:58;;;;;;;5.25;3.00;;;;;;;;;;4949588;28;20045;-60
2024/01/16 02:46:24;;;;;;;8.55;3.03;;;;;;;;;;4932820;29;20058;-60
2024/01/16 02:48:50;;;;;;;7.63;2.88;;;;;;;;;;4932478;29;20058;-60
2024/01/16 02:51:16;;;;;;;5.05;3.17;;;;;;;;;;4931842;28;20039;-59
2024/01/16 02:53:42;;;;;;;6.78;3.30;;;;;;;;;;4932307;29;20050;-60
2024/01/16 02:56:09;;;;;;;5.55;3.20;;;;;;;;;;4932353;29;20031;-60
2024/01/16 02:58:35;;;;;;;6.55;3.15;;;;;;;;;;4933391;29;20035;-59
2024/01/16 03:01:02;;;;;;;8.68;3.17;;;;;;;;;;4934875;29;20384;-60
2024/01/16 03:03:28;;;;;;;5.03;2.92;;;;;;;;;;4934884;29;20032;-59
2024/01/16 03:05:55;;;;;;;5.88;2.88;;;;;;;;;;4934697;29;20050;-60
2024/01/16 03:08:22;;;;;;;6.07;2.72;;;;;;;;;;4935306;29;20047;-60
2024/01/16 03:10:48;;;;;;;6.85;3.75;;;;;;;;;;4948524;28;20508;-60
2024/01/16 03:13:14;;;;;;;5.60;3.00;;;;;;;;;;4933367;29;20070;-60
2024/01/16 03:15:40;;;;;;;6.25;3.10;;;;;;;;;;4950332;28;20527;-60
2024/01/16 03:18:07;;;;;;;6.72;3.35;;;;;;;;;;4934772;29;20424;-59
2024/01/16 03:20:33;;;;;;;6.07;3.00;;;;;;;;;;4932953;29;20035;-59
2024/01/16 03:22:59;;;;;;;15.82;6.15;;;;;;;;;;4935193;28;20035;-60
2024/01/16 03:25:25;;;;;;;10.02;4.40;;;;;;;;;;4932473;29;20056;-60
2024/01/16 03:27:51;;;;;;;6.72;3.30;;;;;;;;;;4933243;29;20059;-59
2024/01/16 03:30:17;;;;;;;8.80;3.50;;;;;;;;;;4932422;29;20039;-60
2024/01/16 03:32:43;;;;;;;8.48;3.22;;;;;;;;;;4932092;29;20042;-60
2024/01/16 03:35:09;;;;;;;6.60;2.97;;;;;;;;;;4935328;29;20044;-60
2024/01/16 03:37:37;;;;;;;8.90;3.60;;;;;;;;;;4931085;29;20035;-60
2024/01/16 03:40:04;;;;;;;5.93;3.05;;;;;;;;;;4932540;29;20032;-60
2024/01/16 03:42:30;;;;;;;5.80;3.15;;;;;;;;;;4933251;29;20408;-59
2024/01/16 03:44:56;;;;;;;6.13;2.90;;;;;;;;;;4930001;29;20055;-59
2024/01/16 03:47:23;;;;;;;5.50;2.97;;;;;;;;;;4933503;29;20048;-60
2024/01/16 03:49:49;;;;;;;5.68;3.17;;;;;;;;;;4929463;29;20047;-60
2024/01/16 03:52:15;;;;;;;6.03;3.03;;;;;;;;;;4933403;29;20044;-60
2024/01/16 03:54:41;;;;;;;6.25;3.28;;;;;;;;;;4930367;29;20056;-59
2024/01/16 03:57:07;;;;;;;7.05;3.38;;;;;;;;;;4928159;29;20054;-60
2024/01/16 03:59:36;;;;;;;5.82;3.03;;;;;;;;;;4932523;29;20058;-60
2024/01/16 04:02:06;;;;;;;6.32;2.97;;;;;;;;;;4933448;29;20043;-60
2024/01/16 04:04:32;;;;;;;5.47;3.25;;;;;;;;;;4947761;28;20052;-60
2024/01/16 04:06:58;;;;;;;5.30;2.65;;;;;;;;;;4932339;29;20040;-60
2024/01/16 04:09:24;;;;;;;5.53;3.17;;;;;;;;;;4932188;29;20027;-60
2024/01/16 04:11:50;;;;;;;5.10;2.70;;;;;;;;;;4933181;29;20071;-60
2024/01/16 04:14:16;;;;;;;11.55;3.95;;;;;;;;;;4931813;29;20425;-59
2024/01/16 04:16:43;;;;;;;6.57;3.42;;;;;;;;;;4933152;29;20045;-60
2024/01/16 04:19:09;;;;;;;5.47;3.10;;;;;;;;;;4933046;29;20051;-60
2024/01/16 04:21:36;;;;;;;6.35;3.58;;;;;;;;;;4931924;29;20051;-60
2024/01/16 04:24:03;;;;;;;6.35;2.75;;;;;;;;;;4933182;29;20044;-59
2024/01/16 04:26:29;;;;;;;5.60;3.05;;;;;;;;;;4943985;28;20065;-60
2024/01/16 04:28:55;;;;;;;8.23;3.03;;;;;;;;;;4943858;28;20261;-59
2024/01/16 04:31:22;;;;;;;8.55;3.45;;;;;;;;;;4931411;29;20392;-60
2024/01/16 04:33:48;;;;;;;11.65;4.40;;;;;;;;;;4933204;29;20046;-59
2024/01/16 04:36:14;;;;;;;9.45;3.95;;;;;;;;;;4947821;28;20031;-60
2024/01/16 04:38:40;;;;;;;5.32;3.03;;;;;;;;;;4944356;28;20031;-60
2024/01/16 04:41:06;;;;;;;4.78;2.80;;;;;;;;;;4929674;29;20056;-60
2024/01/16 04:43:32;;;;;;;6.63;3.25;;;;;;;;;;4932429;29;20530;-60
2024/01/16 04:45:58;;;;;;;5.70;3.25;;;;;;;;;;4928826;29;20252;-61
2024/01/16 04:48:24;;;;;;;5.55;2.85;;;;;;;;;;4930116;29;20047;-60
2024/01/16 04:50:50;;;;;;;7.32;3.63;;;;;;;;;;4928182;29;20067;-60
2024/01/16 04:53:16;;;;;;;6.28;3.55;;;;;;;;;;4932421;29;20547;-59
2024/01/16 04:55:42;;;;;;;10.43;3.80;;;;;;;;;;4932875;29;20054;-60
2024/01/16 04:58:09;;;;;;;12.63;4.28;;;;;;;;;;4932377;29;20051;-60
2024/01/16 05:00:35;;;;;;;29.83;7.20;;;;;;;;;;4929356;29;20063;-60
2024/01/16 05:03:05;;;;;;;19.52;5.25;;;;;;;;;;4930853;28;20054;-60
2024/01/16 05:05:34;;;;;;;11.85;4.15;;;;;;;;;;4929073;29;20052;-60
2024/01/16 05:08:03;;;;;;;11.65;3.88;;;;;;;;;;4931497;29;20048;-61
2024/01/16 05:10:30;;;;;;;8.50;3.45;;;;;;;;;;4925792;29;20048;-60
2024/01/16 05:12:56;;;;;;;7.72;3.42;;;;;;;;;;4929860;29;20415;-60
2024/01/16 05:15:22;;;;;;;3.88;2.92;;;;;;;;;;4932956;29;20051;-60
2024/01/16 05:17:48;;;;;;;6.30;3.00;;;;;;;;;;4932836;29;20031;-60
2024/01/16 05:20:14;;;;;;;6.90;2.80;;;;;;;;;;4931489;29;20035;-60
2024/01/16 05:22:40;;;;;;;7.45;3.78;;;;;;;;;;4932881;29;20419;-62
2024/01/16 05:25:07;;;;;;;8.05;3.63;;;;;;;;;;4930504;29;20039;-60
2024/01/16 05:27:34;;;;;;;6.80;3.10;;;;;;;;;;4929067;29;20048;-61
2024/01/16 05:30:00;;;;;;;4.85;2.92;;;;;;;;;;4928326;28;20047;-61
2024/01/16 05:32:27;;;;;;;8.80;2.80;;;;;;;;;;4926217;28;20043;-60
2024/01/16 05:34:53;;;;;;;7.25;3.35;;;;;;;;;;4925572;29;20427;-60
2024/01/16 05:37:19;;;;;;;4.28;2.55;;;;;;;;;;4928345;29;20043;-61
2024/01/16 05:39:45;;;;;;;6.03;2.80;;;;;;;;;;4930931;29;20035;-60
2024/01/16 05:42:12;;;;;;;5.25;3.28;;;;;;;;;;4931530;29;20058;-60
2024/01/16 05:44:38;;;;;;;6.40;2.90;;;;;;;;;;4927491;29;20046;-60
2024/01/16 05:47:05;;;;;;;7.95;3.70;;;;;;;;;;4932311;29;20047;-60
2024/01/16 05:49:31;;;;;;;23.48;8.70;;;;;;;;;;4931621;29;20404;-60
2024/01/16 05:51:58;;;;;;;17.20;6.30;;;;;;;;;;4928469;28;20040;-60
2024/01/16 05:54:24;;;;;;;14.85;5.25;;;;;;;;;;4930583;29;20054;-60
2024/01/16 05:56:50;;;;;;;10.98;4.85;;;;;;;;;;4928756;29;20056;-60
2024/01/16 05:59:16;;;;;;;9.60;4.70;;;;;;;;;;4930343;29;20407;-60
2024/01/16 06:01:42;;;;;;;6.50;3.50;;;;;;;;;;4930246;29;20047;-60
2024/01/16 06:04:08;;;;;;;6.25;3.67;;;;;;;;;;4931449;29;20043;-60
2024/01/16 06:06:34;;;;;;;4.63;3.10;;;;;;;;;;4932816;29;20054;-61
2024/01/16 06:09:04;;;;;;;5.72;3.05;;;;;;;;;;4925226;29;20048;-59
2024/01/16 06:11:31;;;;;;;6.13;2.67;;;;;;;;;;4933065;29;20032;-59
2024/01/16 06:13:59;;;;;;;9.73;4.13;;;;;;;;;;4931161;29;20051;-58
2024/01/16 06:16:25;;;;;;;14.13;6.30;;;;;;;;;;4945726;28;20523;-60
2024/01/16 06:18:51;;;;;;;9.70;3.63;;;;;;;;;;4929222;29;20067;-59
2024/01/16 06:21:18;;;;;;;8.82;4.78;;;;;;;;;;4929644;29;20051;-59
2024/01/16 06:23:44;;;;;;;13.30;6.95;;;;;;;;;;4930276;29;20039;-59
2024/01/16 06:26:10;;;;;;;7.88;4.18;;;;;;;;;;4931281;29;20051;-59
2024/01/16 06:28:36;;;;;;;6.18;3.10;;;;;;;;;;4928009;29;20646;-61
2024/01/16 06:31:03;;;;;;;6.32;3.15;;;;;;;;;;4947217;28;20035;-59
2024/01/16 06:33:29;;;;;;;5.35;2.95;;;;;;;;;;4929484;29;20050;-60
2024/01/16 06:35:55;;;;;;;4.90;2.53;;;;;;;;;;4928476;29;20040;-60
2024/01/16 06:38:21;;;;;;;5.30;3.03;;;;;;;;;;4930153;29;20063;-60
2024/01/16 06:40:47;;;;;;;6.07;3.15;;;;;;;;;;4933348;28;20416;-61
2024/01/16 06:43:15;;;;;;;8.52;2.83;;;;;;;;;;4930761;29;20040;-59
2024/01/16 06:45:44;;;;;;;7.32;2.85;;;;;;;;;;4929453;29;20046;-62
2024/01/16 06:48:10;;;;;;;5.03;3.10;;;;;;;;;;4931329;29;20046;-60
2024/01/16 06:50:36;;;;;;;4.35;3.30;;;;;;;;;;4927203;29;20040;-60
2024/01/16 06:53:03;;;;;;;6.20;3.05;;;;;;;;;;4925206;29;20035;-61
2024/01/16 06:55:29;;;;;;;8.05;3.50;;;;;;;;;;4932939;29;20051;-60
2024/01/16 06:57:55;;;;;;;4.90;3.65;;;;;;;;;;4931404;29;20511;-60
2024/01/16 07:00:22;;;;;;;5.40;3.40;;;;;;;;;;4931957;29;20035;-60
2024/01/16 07:02:51;;;;;;;5.38;3.30;;;;;;;;;;4930807;29;20043;-59
2024/01/16 07:05:17;;;;;;;7.60;4.18;;;;;;;;;;4932271;29;20039;-60
2024/01/16 07:07:43;;;;;;;4.78;3.28;;;;;;;;;;4946990;28;20048;-60
2024/01/16 07:10:17;;;;;;;6.75;3.47;;;;;;;;;;4931469;29;20484;-60
2024/01/16 07:12:45;;;;;;;6.65;2.83;;;;;;;;;;4945396;28;20059;-60
2024/01/16 07:15:11;;;;;;;6.75;3.22;;;;;;;;;;4932110;29;20032;-60
2024/01/16 07:17:37;;;;;;;3.35;2.60;;;;;;;;;;4929387;29;20055;-60
2024/01/16 07:20:04;;;;;;;7.32;3.67;;;;;;;;;;4930495;29;20050;-60
2024/01/16 07:22:30;;;;;;;8.02;3.95;;;;;;;;;;4933515;29;20067;-61
2024/01/16 07:24:56;;;;;;;8.65;4.03;;;;;;;;;;4935382;29;20039;-60
2024/01/16 07:27:22;;;;;;;6.50;3.95;;;;;;;;;;4935025;29;20035;-60
2024/01/16 07:29:48;;;;;;;8.85;4.10;;;;;;;;;;4934405;29;20058;-60
2024/01/16 07:32:14;;;;;;;10.13;4.80;;;;;;;;;;4932299;29;20052;-60
2024/01/16 07:34:40;;;;;;;14.85;4.88;;;;;;;;;;4935508;29;20040;-60
2024/01/16 07:37:06;;;;;;;5.90;4.28;;;;;;;;;;4930538;29;20050;-59
2024/01/16 07:39:32;;;;;;;8.68;4.63;;;;;;;;;;4935300;29;20044;-60
2024/01/16 07:41:59;;;;;;;12.73;5.20;;;;;;;;;;4935529;29;20397;-59
2024/01/16 07:44:25;;;;;;;9.80;4.93;;;;;;;;;;4975260;23;20046;-62
2024/01/16 07:46:51;;;;;;;13.93;5.70;;;;;;;;;;4972577;28;20525;-62
2024/01/16 07:49:17;;;;;;;8.52;4.95;;;;;;;;;;4971531;28;20035;-62
2024/01/16 07:51:43;;;;;;;7.90;3.95;;;;;;;;;;4973072;28;20059;-62
2024/01/16 07:54:10;;;;;;;7.32;4.28;;;;;;;;;;4971720;28;20037;-62
2024/01/16 07:56:37;;;;;;;6.53;4.40;;;;;;;;;;4967127;28;20038;-61
2024/01/16 07:59:03;;;;;;;5.20;3.30;;;;;;;;;;4969505;28;20042;-62
2024/01/16 08:01:30;;;;;;;5.15;3.10;;;;;;;;;;4971410;28;20042;-62
2024/01/16 08:03:56;;;;;;;9.38;3.88;;;;;;;;;;4970402;28;20051;-62
2024/01/16 08:06:22;;;;;;;6.18;3.30;;;;;;;;;;4970975;28;20055;-62
2024/01/16 08:08:50;;;;;;;6.10;3.28;;;;;;;;;;4969871;28;20039;-62
2024/01/16 08:11:18;;;;;;;6.95;3.13;;;;;;;;;;4969099;28;20058;-62
2024/01/16 08:13:44;;;;;;;7.70;3.28;;;;;;;;;;4971421;28;20046;-62
2024/01/16 08:16:10;;;;;;;4.95;2.80;;;;;;;;;;4970673;28;20031;-62
2024/01/16 08:18:36;;;;;;;9.88;2.90;;;;;;;;;;4970870;28;20057;-62
2024/01/16 08:21:03;;;;;;;5.90;2.80;;;;;;;;;;4971106;28;20499;-62
2024/01/16 08:23:29;;;;;;;161.63;42.72;;;;;;;;;;4969405;28;20037;-62
2024/01/16 08:25:55;;;;;;;23.67;8.75;;;;;;;;;;4971870;28;20427;-62
2024/01/16 08:28:24;;;;;;;9.18;3.50;;;;;;;;;;4968529;28;20043;-62
2024/01/16 08:30:50;;;;;;;7.22;3.00;;;;;;;;;;4968080;28;20043;-62
2024/01/16 08:33:16;;;;;;;6.60;3.45;;;;;;;;;;4969759;28;20046;-62
2024/01/16 08:35:42;;;;;;;9.65;4.40;;;;;;;;;;4971073;28;20058;-63
2024/01/16 08:38:08;;;;;;;8.82;4.43;;;;;;;;;;4971473;28;20387;-62
2024/01/16 08:40:35;;;;;;;7.22;3.97;;;;;;;;;;4970025;28;20042;-62
2024/01/16 08:43:01;;;;;;;7.78;4.30;;;;;;;;;;4966883;28;20045;-62
2024/01/16 08:45:27;;;;;;;5.32;2.97;;;;;;;;;;4971163;28;20043;-62
2024/01/16 08:47:53;;;;;;;5.30;3.30;;;;;;;;;;4970933;28;20045;-61
2024/01/16 08:50:19;;;;;;;6.00;3.08;;;;;;;;;;4968790;28;20050;-62
2024/01/16 08:52:45;;;;;;;5.65;3.30;;;;;;;;;;4971970;28;20047;-62
2024/01/16 08:55:12;;;;;;;6.32;3.50;;;;;;;;;;4969030;28;20034;-62
2024/01/16 08:57:38;;;;;;;6.03;3.10;;;;;;;;;;4970589;28;20042;-62
2024/01/16 09:00:10;;;;;;;5.55;3.03;;;;;;;;;;4968472;28;20047;-62
2024/01/16 09:02:36;;;;;;;6.72;2.80;;;;;;;;;;4968482;28;20034;-62
2024/01/16 09:05:02;;;;;;;4.75;2.70;;;;;;;;;;4968368;28;20043;-62
2024/01/16 09:07:28;;;;;;;4.28;2.80;;;;;;;;;;4970826;28;20042;-62
2024/01/16 09:09:55;;;;;;;4.60;2.67;;;;;;;;;;4969031;28;20495;-61
2024/01/16 09:12:21;;;;;;;5.65;2.97;;;;;;;;;;4968370;28;20042;-61
2024/01/16 09:14:47;;;;;;;4.43;2.50;;;;;;;;;;4970373;28;20039;-62
2024/01/16 09:17:13;;;;;;;5.70;2.60;;;;;;;;;;4969830;28;20062;-62
2024/01/16 09:19:39;;;;;;;5.00;2.30;;;;;;;;;;4969299;28;20046;-62
2024/01/16 09:22:05;;;;;;;5.20;2.95;;;;;;;;;;4968762;28;20031;-62
2024/01/16 09:24:32;;;;;;;4.53;2.42;;;;;;;;;;4969292;28;20574;-62
2024/01/16 09:26:58;;;;;;;5.13;2.55;;;;;;;;;;4970889;28;20498;-61
2024/01/16 09:29:24;;;;;;;5.10;2.65;;;;;;;;;;4966400;28;20136;-61
2024/01/16 09:31:51;;;;;;;4.18;2.53;;;;;;;;;;4966013;28;20070;-61
2024/01/16 09:34:17;;;;;;;5.25;2.80;;;;;;;;;;4966902;28;20058;-60
2024/01/16 09:36:44;;;;;;;4.47;2.50;;;;;;;;;;4965648;28;20038;-61
2024/01/16 09:39:13;;;;;;;5.90;2.80;;;;;;;;;;4967758;28;20042;-61
2024/01/16 09:41:46;;;;;;;5.30;2.40;;;;;;;;;;4966271;28;20043;-61
2024/01/16 09:44:12;;;;;;;4.25;2.17;;;;;;;;;;4967905;28;20027;-61
2024/01/16 09:46:40;;;;;;;5.40;2.58;;;;;;;;;;4967269;28;20046;-62
2024/01/16 09:49:06;;;;;;;5.90;2.60;;;;;;;;;;4965106;28;20411;-61
2024/01/16 09:51:33;;;;;;;6.80;2.58;;;;;;;;;;4970247;28;20035;-62
2024/01/16 09:53:59;;;;;;;5.57;2.25;;;;;;;;;;4968744;28;20047;-61
2024/01/16 09:56:26;;;;;;;3.88;2.30;;;;;;;;;;4970591;28;20035;-61
2024/01/16 09:59:00;;;;;;;5.85;2.63;;;;;;;;;;4963482;28;20608;-61
2024/01/16 10:01:28;;;;;;;6.25;2.83;;;;;;;;;;4963998;28;20069;-62
2024/01/16 10:03:54;;;;;;;10.02;4.70;;;;;;;;;;4968438;28;20047;-61
2024/01/16 10:06:22;;;;;;;8.75;3.72;;;;;;;;;;4970263;28;20486;-62
2024/01/16 10:08:48;;;;;;;5.13;3.55;;;;;;;;;;4967157;28;20046;-61
2024/01/16 10:11:14;;;;;;;5.82;3.33;;;;;;;;;;4969391;28;20045;-62
2024/01/16 10:13:41;;;;;;;6.95;3.35;;;;;;;;;;4968506;28;20046;-62
2024/01/16 10:16:07;;;;;;;6.53;3.10;;;;;;;;;;4968554;28;20486;-61
2024/01/16 10:18:37;;;;;;;5.47;3.05;;;;;;;;;;4966897;28;20042;-62
2024/01/16 10:21:04;;;;;;;10.43;5.15;;;;;;;;;;4967616;28;20041;-62
2024/01/16 10:23:32;;;;;;;24.42;10.57;;;;;;;;;;4969084;28;20027;-62
2024/01/16 10:26:12;;;;;;;20.83;10.23;;;;;;;;;;4969597;28;20053;-62
2024/01/16 10:28:40;;;;;;;25.73;12.50;;;;;;;;;;4965315;28;20047;-62
2024/01/16 10:31:11;;;;;;;22.80;10.77;;;;;;;;;;4966278;28;20039;-62
2024/01/16 10:33:41;;;;;;;25.33;13.23;;;;;;;;;;4968914;28;20057;-62
2024/01/16 10:36:17;;;;;;;;;;;;;;;;;;4965258;28;20411;-62
2024/01/16 10:38:44;;;;;;;27.55;12.65;;;;;;;;;;4964851;28;20282;-62
2024/01/16 10:41:11;;;;;;;28.00;12.38;;;;;;;;;;4969496;28;20037;-61
2024/01/16 10:43:38;;;;;;;19.23;10.63;;;;;;;;;;4963122;28;20419;-62
2024/01/16 10:46:14;;;;;;;15.60;8.90;;;;;;;;;;4969365;28;20103;-61
2024/01/16 10:48:45;;;;;;;15.00;8.80;;;;;;;;;;4961147;28;20081;-61
2024/01/16 10:51:15;;;;;;;15.88;8.13;;;;;;;;;;4969685;28;20515;-61
2024/01/16 10:53:46;;;;;;;12.55;8.27;;;;;;;;;;4966290;28;20055;-61
2024/01/16 10:56:13;;;;;;;11.70;7.22;;;;;;;;;;4968095;28;20039;-61
2024/01/16 10:58:41;;;;;;;14.43;7.55;;;;;;;;;;4972421;28;20042;-61
2024/01/16 11:01:12;;;;;;;14.55;7.18;;;;;;;;;;4972433;28;20035;-61
2024/01/16 11:03:49;;;;;;;18.73;8.90;;;;;;;;;;4970417;28;20039;-61
2024/01/16 11:06:18;;;;;;;18.35;8.23;;;;;;;;;;4972978;28;20035;-60
2024/01/16 11:08:48;;;;;;;15.77;8.27;;;;;;;;;;4970939;28;20050;-61
2024/01/16 11:11:15;;;;;;;17.52;8.27;;;;;;;;;;4972707;28;20046;-60
2024/01/16 11:13:44;;;;;;;18.13;8.80;;;;;;;;;;4971250;28;20047;-61
2024/01/16 11:16:11;;;;;;;14.95;8.32;;;;;;;;;;4971334;28;20046;-62
2024/01/16 11:18:37;;;;;;;12.90;7.88;;;;;;;;;;4971315;28;20038;-62
2024/01/16 11:21:09;;;;;;;13.48;6.97;;;;;;;;;;4972324;28;20054;-63
2024/01/16 11:23:37;;;;;;;18.25;8.13;;;;;;;;;;4970021;28;20390;-62
2024/01/16 11:26:25;;;;;;;21.25;9.43;;;;;;;;;;4969080;28;20061;-62
2024/01/16 11:28:53;;;;;;;10.95;6.03;;;;;;;;;;4968253;28;20051;-62
2024/01/16 11:31:30;;;;;;;11.65;6.35;;;;;;;;;;4967774;28;20077;-62
2024/01/16 11:33:57;;;;;;;17.20;8.25;;;;;;;;;;4970053;28;20050;-61
2024/01/16 11:36:53;;;;;;;12.55;7.88;;;;;;;;;;4969533;28;20479;-61
2024/01/16 11:39:21;;;;;;;10.57;6.20;;;;;;;;;;4968852;28;20039;-61
2024/01/16 11:41:51;;;;;;;10.77;6.45;;;;;;;;;;4972018;28;20531;-61
2024/01/16 11:44:36;;;;;;;11.68;6.47;;;;;;;;;;4970865;28;20586;-61
2024/01/16 11:47:04;;;;;;;12.95;6.00;;;;;;;;;;4967442;28;20042;-61
2024/01/16 11:49:31;;;;;;;13.45;7.13;;;;;;;;;;4970980;28;20035;-61
2024/01/16 11:51:58;;;;;;;9.88;5.00;;;;;;;;;;4970097;28;21712;-61
2024/01/16 11:54:25;;;;;;;6.85;4.40;;;;;;;;;;4970871;28;20054;-61
2024/01/16 11:57:18;;;;;;;9.32;4.70;;;;;;;;;;4970471;28;20042;-61
2024/01/16 12:00:14;;;;;;;6.88;3.15;;;;;;;;;;4969101;28;20042;-61
2024/01/16 12:02:44;;;;;;;4.85;3.05;;;;;;;;;;4982102;28;20042;-61
2024/01/16 12:05:11;;;;;;;7.25;3.33;;;;;;;;;;4969323;28;20379;-62
2024/01/16 12:07:50;;;;;;;6.07;3.75;;;;;;;;;;4971971;28;20046;-61
2024/01/16 12:10:17;;;;;;;8.25;4.45;;;;;;;;;;4971597;28;20379;-61
2024/01/16 12:12:45;;;;;;;9.50;5.70;;;;;;;;;;4971061;28;20050;-61
2024/01/16 12:15:19;;;;;;;8.15;5.20;;;;;;;;;;4972994;28;20046;-60
2024/01/16 12:18:01;;;;;;;8.20;4.45;;;;;;;;;;4972252;28;20027;-61
2024/01/16 12:20:33;;;;;;;12.05;5.20;;;;;;;;;;4968539;28;20039;-61
2024/01/16 12:22:59;;;;;;;7.75;4.75;;;;;;;;;;4969784;28;20051;-60
2024/01/16 12:25:30;;;;;;;7.88;4.35;;;;;;;;;;4971666;28;20412;-61
2024/01/16 12:27:58;;;;;;;8.00;4.40;;;;;;;;;;4967219;28;20414;-61
2024/01/16 12:30:29;;;;;;;9.35;4.47;;;;;;;;;;4965537;28;20716;-62
2024/01/16 12:33:07;;;;;;;8.27;4.05;;;;;;;;;;4972254;28;20043;-62
2024/01/16 12:35:38;;;;;;;5.70;3.60;;;;;;;;;;4965591;28;20050;-62
2024/01/16 12:38:12;;;;;;;9.02;4.00;;;;;;;;;;4965389;28;20035;-62
2024/01/16 12:40:44;;;;;;;7.25;4.05;;;;;;;;;;4967205;28;20644;-61
2024/01/16 12:43:10;;;;;;;7.78;4.35;;;;;;;;;;4970995;28;20034;-61
2024/01/16 12:45:37;;;;;;;8.65;5.18;;;;;;;;;;4965159;28;20068;-61
2024/01/16 12:48:03;;;;;;;9.57;4.07;;;;;;;;;;4965246;28;20039;-61
2024/01/16 12:50:31;;;;;;;5.65;4.35;;;;;;;;;;4971043;28;20053;-61
2024/01/16 12:53:05;;;;;;;7.30;4.15;;;;;;;;;;4982163;28;20043;-61
2024/01/16 12:55:41;;;;;;;7.57;4.32;;;;;;;;;;4968995;28;20060;-61
2024/01/16 12:58:19;;;;;;;6.22;3.85;;;;;;;;;;4968872;28;20051;-61
2024/01/16 13:00:47;;;;;;;10.47;4.97;;;;;;;;;;4967679;28;20049;-60
2024/01/16 13:03:30;;;;;;;7.65;4.90;;;;;;;;;;4970764;28;20055;-61
2024/01/16 13:06:00;;;;;;;7.43;4.38;;;;;;;;;;4970321;28;20042;-61
2024/01/16 13:08:27;;;;;;;7.65;3.70;;;;;;;;;;4969721;28;20046;-61
2024/01/16 13:11:09;;;;;;;8.55;4.90;;;;;;;;;;4970500;28;20057;-61
2024/01/16 13:13:36;;;;;;;5.65;3.90;;;;;;;;;;4966243;28;20058;-61
2024/01/16 13:16:08;;;;;;;6.47;3.90;;;;;;;;;;4968357;28;20035;-61
2024/01/16 13:18:34;;;;;;;6.15;4.40;;;;;;;;;;4966666;28;20035;-61
2024/01/16 13:21:01;;;;;;;6.50;4.22;;;;;;;;;;4969505;28;20034;-61
2024/01/16 13:23:28;;;;;;;6.68;4.15;;;;;;;;;;4967189;28;20057;-61
2024/01/16 13:25:56;;;;;;;7.72;3.92;;;;;;;;;;4967504;28;20065;-61
2024/01/16 13:28:24;;;;;;;6.93;4.32;;;;;;;;;;4960238;28;20034;-61
2024/01/16 13:30:50;;;;;;;5.55;3.65;;;;;;;;;;4966957;28;20038;-60
2024/01/16 13:33:17;;;;;;;6.28;4.07;;;;;;;;;;4964585;28;20038;-60
2024/01/16 13:35:44;;;;;;;6.68;3.53;;;;;;;;;;4968930;28;20062;-60
2024/01/16 13:38:12;;;;;;;6.28;3.67;;;;;;;;;;4967070;28;20049;-60
2024/01/16 13:40:38;;;;;;;6.45;3.80;;;;;;;;;;4967538;28;20065;-61
2024/01/16 13:43:06;;;;;;;5.75;3.42;;;;;;;;;;4964312;28;20058;-60
2024/01/16 13:45:33;;;;;;;7.38;4.00;;;;;;;;;;4965810;28;20039;-61
2024/01/16 13:48:01;;;;;;;7.80;4.30;;;;;;;;;;4967051;28;20070;-60
2024/01/16 13:50:27;;;;;;;7.63;4.78;;;;;;;;;;4964086;28;20050;-60
2024/01/16 13:52:54;;;;;;;6.25;4.10;;;;;;;;;;4961899;28;20129;-62
2024/01/16 13:55:21;;;;;;;6.25;3.75;;;;;;;;;;4963210;28;20391;-62
2024/01/16 13:57:47;;;;;;;6.40;3.80;;;;;;;;;;4963841;28;20516;-63
2024/01/16 14:00:15;;;;;;;6.72;4.10;;;;;;;;;;4966365;28;20054;-62
2024/01/16 14:02:45;;;;;;;8.27;3.92;;;;;;;;;;4967818;28;20035;-62
2024/01/16 14:05:15;;;;;;;6.10;4.35;;;;;;;;;;4963670;28;20494;-61
2024/01/16 14:07:46;;;;;;;;;;;;;;;;;;4965743;28;20411;-62
2024/01/16 14:10:13;;;;;;;8.00;4.80;;;;;;;;;;4967786;28;19928;-62
2024/01/16 14:12:44;;;;;;;7.68;4.78;;;;;;;;;;4967240;28;20038;-62
2024/01/16 14:15:18;;;;;;;5.97;3.90;;;;;;;;;;4967574;28;20427;-62
2024/01/16 14:17:46;;;;;;;5.00;3.42;;;;;;;;;;4968893;28;20050;-62
2024/01/16 14:20:13;;;;;;;6.28;3.50;;;;;;;;;;4963412;28;20042;-61
2024/01/16 14:22:40;;;;;;;7.05;4.10;;;;;;;;;;4964085;28;20042;-62
2024/01/16 14:25:11;;;;;;;5.85;3.47;;;;;;;;;;4983457;28;20456;-61
2024/01/16 14:27:41;;;;;;;5.57;3.70;;;;;;;;;;4964404;28;20407;-67
2024/01/16 14:30:13;;;;;;;5.40;3.30;;;;;;;;;;4964662;28;20435;-62
2024/01/16 14:32:40;;;;;;;6.13;3.80;;;;;;;;;;4968219;28;20050;-61
2024/01/16 14:35:09;;;;;;;7.15;3.83;;;;;;;;;;4968423;28;20062;-60
2024/01/16 14:37:36;;;;;;;5.07;4.03;;;;;;;;;;4970591;28;20038;-61
2024/01/16 14:40:08;;;;;;;5.60;3.47;;;;;;;;;;4970265;28;20058;-61
2024/01/16 14:42:34;;;;;;;6.00;3.80;;;;;;;;;;4964598;28;20058;-61
2024/01/16 14:45:00;;;;;;;16.30;4.75;;;;;;;;;;4968195;28;20057;-60
2024/01/16 14:47:26;;;;;;;6.25;4.40;;;;;;;;;;4973234;28;20391;-61